sensor_id;sensor_type;location;lat;lon;timestamp;P1;durP1;ratioP1;P2;durP2;ratioP2
17727;SDS011;8984;49.268;12.302;2023-02-04T00:01:00;11.17;;;3.33;;
17727;SDS011;8984;49.268;12.302;2023-02-04T00:03:29;10.77;;;3.57;;
17727;SDS011;8984;49.268;12.302;2023-02-04T00:06:04;11.90;;;3.27;;
17727;SDS011;8984;49.268;12.302;2023-02-04T00:08:49;11.90;;;3.60;;
17727;SDS011;8984;49.268;12.302;2023-02-04T00:11:21;8.23;;;2.90;;
17727;SDS011;8984;49.268;12.302;2023-02-04T00:13:51;12.13;;;3.57;;
17727;SDS011;8984;49.268;12.302;2023-02-04T00:16:40;12.40;;;3.00;;
17727;SDS011;8984;49.268;12.302;2023-02-04T00:19:09;15.10;;;4.10;;
17727;SDS011;8984;49.268;12.302;2023-02-04T00:24:29;12.67;;;3.63;;
17727;SDS011;8984;49.268;12.302;2023-02-04T00:27:07;13.47;;;3.20;;
17727;SDS011;8984;49.268;12.302;2023-02-04T00:29:48;8.17;;;2.93;;
17727;SDS011;8984;49.268;12.302;2023-02-04T00:32:25;12.73;;;3.00;;
17727;SDS011;8984;49.268;12.302;2023-02-04T00:34:52;9.97;;;3.13;;
17727;SDS011;8984;49.268;12.302;2023-02-04T00:37:21;13.73;;;3.10;;
17727;SDS011;8984;49.268;12.302;2023-02-04T00:39:55;8.83;;;2.47;;
17727;SDS011;8984;49.268;12.302;2023-02-04T00:42:25;11.23;;;3.00;;
17727;SDS011;8984;49.268;12.302;2023-02-04T00:44:52;10.00;;;3.23;;
17727;SDS011;8984;49.268;12.302;2023-02-04T00:47:32;11.80;;;3.03;;
17727;SDS011;8984;49.268;12.302;2023-02-04T00:50:01;12.80;;;3.17;;
17727;SDS011;8984;49.268;12.302;2023-02-04T00:53:05;9.53;;;3.33;;
17727;SDS011;8984;49.268;12.302;2023-02-04T00:55:42;13.20;;;3.57;;
17727;SDS011;8984;49.268;12.302;2023-02-04T00:58:13;11.13;;;3.43;;
17727;SDS011;8984;49.268;12.302;2023-02-04T01:00:44;9.80;;;4.03;;
17727;SDS011;8984;49.268;12.302;2023-02-04T01:03:12;11.23;;;3.60;;
17727;SDS011;8984;49.268;12.302;2023-02-04T01:06:00;10.77;;;3.73;;
17727;SDS011;8984;49.268;12.302;2023-02-04T01:11:27;14.97;;;3.60;;
17727;SDS011;8984;49.268;12.302;2023-02-04T01:13:58;13.07;;;3.80;;
17727;SDS011;8984;49.268;12.302;2023-02-04T01:16:36;12.37;;;3.87;;
17727;SDS011;8984;49.268;12.302;2023-02-04T01:19:29;10.03;;;3.33;;
17727;SDS011;8984;49.268;12.302;2023-02-04T01:21:57;11.43;;;2.97;;
17727;SDS011;8984;49.268;12.302;2023-02-04T01:24:57;15.53;;;3.70;;
17727;SDS011;8984;49.268;12.302;2023-02-04T01:27:56;9.47;;;2.80;;
17727;SDS011;8984;49.268;12.302;2023-02-04T01:30:28;13.53;;;3.70;;
17727;SDS011;8984;49.268;12.302;2023-02-04T01:33:02;11.83;;;3.67;;
17727;SDS011;8984;49.268;12.302;2023-02-04T01:35:30;12.77;;;3.10;;
17727;SDS011;8984;49.268;12.302;2023-02-04T01:38:01;9.20;;;2.90;;
17727;SDS011;8984;49.268;12.302;2023-02-04T01:40:40;9.87;;;3.40;;
17727;SDS011;8984;49.268;12.302;2023-02-04T01:43:10;13.50;;;3.60;;
17727;SDS011;8984;49.268;12.302;2023-02-04T01:45:42;10.20;;;2.90;;
17727;SDS011;8984;49.268;12.302;2023-02-04T01:48:22;7.17;;;2.53;;
17727;SDS011;8984;49.268;12.302;2023-02-04T01:51:07;11.53;;;2.93;;
17727;SDS011;8984;49.268;12.302;2023-02-04T01:53:52;10.57;;;3.60;;
17727;SDS011;8984;49.268;12.302;2023-02-04T01:59:15;13.00;;;3.37;;
17727;SDS011;8984;49.268;12.302;2023-02-04T02:02:35;13.57;;;3.90;;
17727;SDS011;8984;49.268;12.302;2023-02-04T02:05:31;10.67;;;3.80;;
17727;SDS011;8984;49.268;12.302;2023-02-04T02:08:28;13.93;;;3.77;;
17727;SDS011;8984;49.268;12.302;2023-02-04T02:10:58;13.07;;;3.40;;
17727;SDS011;8984;49.268;12.302;2023-02-04T02:13:35;14.50;;;3.60;;
17727;SDS011;8984;49.268;12.302;2023-02-04T02:16:08;11.57;;;3.43;;
17727;SDS011;8984;49.268;12.302;2023-02-04T02:19:16;16.17;;;3.83;;
17727;SDS011;8984;49.268;12.302;2023-02-04T02:22:01;15.50;;;3.40;;
17727;SDS011;8984;49.268;12.302;2023-02-04T02:24:38;12.03;;;3.43;;
17727;SDS011;8984;49.268;12.302;2023-02-04T02:30:10;12.80;;;3.33;;
17727;SDS011;8984;49.268;12.302;2023-02-04T02:32:42;9.80;;;3.40;;
17727;SDS011;8984;49.268;12.302;2023-02-04T02:35:13;16.37;;;3.80;;
17727;SDS011;8984;49.268;12.302;2023-02-04T02:37:47;8.47;;;2.93;;
17727;SDS011;8984;49.268;12.302;2023-02-04T02:40:25;10.13;;;3.40;;
17727;SDS011;8984;49.268;12.302;2023-02-04T02:43:05;10.73;;;3.63;;
17727;SDS011;8984;49.268;12.302;2023-02-04T02:45:36;9.40;;;2.90;;
17727;SDS011;8984;49.268;12.302;2023-02-04T02:48:04;9.93;;;2.67;;
17727;SDS011;8984;49.268;12.302;2023-02-04T02:50:35;11.77;;;3.13;;
17727;SDS011;8984;49.268;12.302;2023-02-04T02:53:09;13.40;;;3.40;;
17727;SDS011;8984;49.268;12.302;2023-02-04T02:55:53;7.57;;;2.70;;
17727;SDS011;8984;49.268;12.302;2023-02-04T02:58:27;12.47;;;3.20;;
17727;SDS011;8984;49.268;12.302;2023-02-04T03:01:01;11.47;;;3.17;;
17727;SDS011;8984;49.268;12.302;2023-02-04T03:03:39;11.63;;;3.43;;
17727;SDS011;8984;49.268;12.302;2023-02-04T03:06:21;12.80;;;3.40;;
17727;SDS011;8984;49.268;12.302;2023-02-04T03:08:52;14.60;;;3.80;;
17727;SDS011;8984;49.268;12.302;2023-02-04T03:11:34;15.03;;;3.40;;
17727;SDS011;8984;49.268;12.302;2023-02-04T03:14:15;10.87;;;3.13;;
17727;SDS011;8984;49.268;12.302;2023-02-04T03:16:52;11.03;;;3.27;;
17727;SDS011;8984;49.268;12.302;2023-02-04T03:19:37;11.73;;;3.00;;
17727;SDS011;8984;49.268;12.302;2023-02-04T03:22:11;11.40;;;3.07;;
17727;SDS011;8984;49.268;12.302;2023-02-04T03:24:54;10.40;;;3.07;;
17727;SDS011;8984;49.268;12.302;2023-02-04T03:27:27;11.93;;;3.17;;
17727;SDS011;8984;49.268;12.302;2023-02-04T03:29:58;11.70;;;3.20;;
17727;SDS011;8984;49.268;12.302;2023-02-04T03:32:29;13.93;;;2.90;;
17727;SDS011;8984;49.268;12.302;2023-02-04T03:35:03;14.50;;;3.17;;
17727;SDS011;8984;49.268;12.302;2023-02-04T03:37:48;10.53;;;3.40;;
17727;SDS011;8984;49.268;12.302;2023-02-04T03:40:25;13.20;;;4.03;;
17727;SDS011;8984;49.268;12.302;2023-02-04T03:46:00;10.73;;;3.33;;
17727;SDS011;8984;49.268;12.302;2023-02-04T03:48:38;9.20;;;2.80;;
17727;SDS011;8984;49.268;12.302;2023-02-04T03:51:08;8.00;;;2.73;;
17727;SDS011;8984;49.268;12.302;2023-02-04T03:53:41;9.43;;;3.37;;
17727;SDS011;8984;49.268;12.302;2023-02-04T03:56:11;8.90;;;3.07;;
17727;SDS011;8984;49.268;12.302;2023-02-04T04:01:44;9.30;;;2.77;;
17727;SDS011;8984;49.268;12.302;2023-02-04T04:04:16;8.10;;;2.40;;
17727;SDS011;8984;49.268;12.302;2023-02-04T04:06:47;8.77;;;3.00;;
17727;SDS011;8984;49.268;12.302;2023-02-04T04:09:19;8.33;;;2.93;;
17727;SDS011;8984;49.268;12.302;2023-02-04T04:11:49;7.23;;;2.67;;
17727;SDS011;8984;49.268;12.302;2023-02-04T04:17:20;15.00;;;3.73;;
17727;SDS011;8984;49.268;12.302;2023-02-04T04:20:01;9.23;;;2.90;;
17727;SDS011;8984;49.268;12.302;2023-02-04T04:22:37;8.60;;;2.47;;
17727;SDS011;8984;49.268;12.302;2023-02-04T04:25:06;10.13;;;2.40;;
17727;SDS011;8984;49.268;12.302;2023-02-04T04:27:53;13.83;;;3.43;;
17727;SDS011;8984;49.268;12.302;2023-02-04T04:36:27;10.27;;;2.90;;
17727;SDS011;8984;49.268;12.302;2023-02-04T04:38:56;9.43;;;3.03;;
17727;SDS011;8984;49.268;12.302;2023-02-04T04:41:31;6.87;;;2.40;;
17727;SDS011;8984;49.268;12.302;2023-02-04T04:47:12;5.77;;;2.07;;
17727;SDS011;8984;49.268;12.302;2023-02-04T04:49:44;8.30;;;2.43;;
17727;SDS011;8984;49.268;12.302;2023-02-04T04:52:28;4.53;;;2.27;;
17727;SDS011;8984;49.268;12.302;2023-02-04T04:55:09;4.50;;;2.53;;
17727;SDS011;8984;49.268;12.302;2023-02-04T04:57:43;6.17;;;2.30;;
17727;SDS011;8984;49.268;12.302;2023-02-04T05:00:30;9.20;;;2.50;;
17727;SDS011;8984;49.268;12.302;2023-02-04T05:03:34;8.73;;;2.23;;
17727;SDS011;8984;49.268;12.302;2023-02-04T05:06:01;7.03;;;2.50;;
17727;SDS011;8984;49.268;12.302;2023-02-04T05:08:28;9.17;;;2.50;;
17727;SDS011;8984;49.268;12.302;2023-02-04T05:10:55;4.03;;;2.17;;
17727;SDS011;8984;49.268;12.302;2023-02-04T05:13:26;6.63;;;2.70;;
17727;SDS011;8984;49.268;12.302;2023-02-04T05:15:59;7.43;;;2.77;;
17727;SDS011;8984;49.268;12.302;2023-02-04T05:18:31;3.83;;;1.73;;
17727;SDS011;8984;49.268;12.302;2023-02-04T05:21:07;6.63;;;2.60;;
17727;SDS011;8984;49.268;12.302;2023-02-04T05:23:48;4.97;;;1.93;;
17727;SDS011;8984;49.268;12.302;2023-02-04T05:26:20;3.83;;;1.90;;
17727;SDS011;8984;49.268;12.302;2023-02-04T05:29:07;5.30;;;1.90;;
17727;SDS011;8984;49.268;12.302;2023-02-04T05:31:37;2.77;;;1.90;;
17727;SDS011;8984;49.268;12.302;2023-02-04T05:34:16;3.43;;;1.67;;
17727;SDS011;8984;49.268;12.302;2023-02-04T05:37:16;1.90;;;1.80;;
17727;SDS011;8984;49.268;12.302;2023-02-04T05:39:45;2.53;;;2.00;;
17727;SDS011;8984;49.268;12.302;2023-02-04T05:42:23;2.00;;;1.80;;
17727;SDS011;8984;49.268;12.302;2023-02-04T05:44:56;2.07;;;1.90;;
17727;SDS011;8984;49.268;12.302;2023-02-04T05:47:25;2.50;;;1.70;;
17727;SDS011;8984;49.268;12.302;2023-02-04T05:49:55;2.43;;;1.73;;
17727;SDS011;8984;49.268;12.302;2023-02-04T05:52:47;1.90;;;1.67;;
17727;SDS011;8984;49.268;12.302;2023-02-04T05:55:16;1.80;;;1.70;;
17727;SDS011;8984;49.268;12.302;2023-02-04T05:57:46;2.10;;;2.00;;
17727;SDS011;8984;49.268;12.302;2023-02-04T06:00:20;1.70;;;1.60;;
17727;SDS011;8984;49.268;12.302;2023-02-04T06:02:58;2.10;;;1.90;;
17727;SDS011;8984;49.268;12.302;2023-02-04T06:06:03;2.03;;;1.87;;
17727;SDS011;8984;49.268;12.302;2023-02-04T06:09:11;1.83;;;1.73;;
17727;SDS011;8984;49.268;12.302;2023-02-04T06:11:46;1.87;;;1.77;;
17727;SDS011;8984;49.268;12.302;2023-02-04T06:14:18;2.33;;;2.13;;
17727;SDS011;8984;49.268;12.302;2023-02-04T06:16:59;2.00;;;1.80;;
17727;SDS011;8984;49.268;12.302;2023-02-04T06:19:33;2.10;;;1.90;;
17727;SDS011;8984;49.268;12.302;2023-02-04T06:22:20;1.90;;;1.77;;
17727;SDS011;8984;49.268;12.302;2023-02-04T06:25:07;2.50;;;1.90;;
17727;SDS011;8984;49.268;12.302;2023-02-04T06:27:52;2.90;;;1.93;;
17727;SDS011;8984;49.268;12.302;2023-02-04T06:30:32;2.50;;;2.30;;
17727;SDS011;8984;49.268;12.302;2023-02-04T06:33:14;2.20;;;2.00;;
17727;SDS011;8984;49.268;12.302;2023-02-04T06:36:01;2.20;;;2.00;;
17727;SDS011;8984;49.268;12.302;2023-02-04T06:39:16;2.13;;;2.00;;
17727;SDS011;8984;49.268;12.302;2023-02-04T06:45:02;2.27;;;2.07;;
17727;SDS011;8984;49.268;12.302;2023-02-04T06:47:34;2.23;;;2.13;;
17727;SDS011;8984;49.268;12.302;2023-02-04T06:53:12;2.30;;;2.20;;
17727;SDS011;8984;49.268;12.302;2023-02-04T06:55:47;2.40;;;2.20;;
17727;SDS011;8984;49.268;12.302;2023-02-04T06:58:26;2.40;;;2.23;;
17727;SDS011;8984;49.268;12.302;2023-02-04T07:01:06;2.97;;;2.77;;
17727;SDS011;8984;49.268;12.302;2023-02-04T07:03:47;3.70;;;2.90;;
17727;SDS011;8984;49.268;12.302;2023-02-04T07:06:32;2.27;;;2.17;;
17727;SDS011;8984;49.268;12.302;2023-02-04T07:12:20;2.73;;;2.53;;
17727;SDS011;8984;49.268;12.302;2023-02-04T07:15:06;2.90;;;2.63;;
17727;SDS011;8984;49.268;12.302;2023-02-04T07:17:42;2.70;;;2.50;;
17727;SDS011;8984;49.268;12.302;2023-02-04T07:20:22;2.30;;;2.17;;
17727;SDS011;8984;49.268;12.302;2023-02-04T07:23:03;2.50;;;2.30;;
17727;SDS011;8984;49.268;12.302;2023-02-04T07:25:46;2.67;;;2.47;;
17727;SDS011;8984;49.268;12.302;2023-02-04T07:28:31;2.50;;;2.30;;
17727;SDS011;8984;49.268;12.302;2023-02-04T07:31:16;2.60;;;2.37;;
17727;SDS011;8984;49.268;12.302;2023-02-04T07:33:55;2.93;;;2.33;;
17727;SDS011;8984;49.268;12.302;2023-02-04T07:36:40;3.00;;;2.03;;
17727;SDS011;8984;49.268;12.302;2023-02-04T07:39:08;2.20;;;2.03;;
17727;SDS011;8984;49.268;12.302;2023-02-04T07:41:37;2.67;;;2.10;;
17727;SDS011;8984;49.268;12.302;2023-02-04T07:44:18;2.20;;;2.00;;
17727;SDS011;8984;49.268;12.302;2023-02-04T07:46:50;2.27;;;2.17;;
17727;SDS011;8984;49.268;12.302;2023-02-04T07:49:24;2.00;;;1.90;;
17727;SDS011;8984;49.268;12.302;2023-02-04T07:52:04;2.60;;;1.93;;
17727;SDS011;8984;49.268;12.302;2023-02-04T07:54:41;2.47;;;2.27;;
17727;SDS011;8984;49.268;12.302;2023-02-04T07:57:18;2.60;;;2.40;;
17727;SDS011;8984;49.268;12.302;2023-02-04T08:00:05;2.83;;;2.63;;
17727;SDS011;8984;49.268;12.302;2023-02-04T08:02:38;3.57;;;2.50;;
17727;SDS011;8984;49.268;12.302;2023-02-04T08:05:17;2.40;;;2.20;;
17727;SDS011;8984;49.268;12.302;2023-02-04T08:10:57;3.13;;;2.77;;
17727;SDS011;8984;49.268;12.302;2023-02-04T08:13:39;3.53;;;2.50;;
17727;SDS011;8984;49.268;12.302;2023-02-04T08:16:12;3.97;;;3.10;;
17727;SDS011;8984;49.268;12.302;2023-02-04T08:18:42;3.87;;;2.80;;
17727;SDS011;8984;49.268;12.302;2023-02-04T08:21:18;4.00;;;2.07;;
17727;SDS011;8984;49.268;12.302;2023-02-04T08:23:51;2.87;;;2.50;;
17727;SDS011;8984;49.268;12.302;2023-02-04T08:26:21;2.23;;;2.13;;
17727;SDS011;8984;49.268;12.302;2023-02-04T08:29:07;14.90;;;7.63;;
17727;SDS011;8984;49.268;12.302;2023-02-04T08:31:46;12.53;;;6.23;;
17727;SDS011;8984;49.268;12.302;2023-02-04T08:34:25;2.10;;;2.00;;
17727;SDS011;8984;49.268;12.302;2023-02-04T08:36:59;3.03;;;2.40;;
17727;SDS011;8984;49.268;12.302;2023-02-04T08:39:26;2.30;;;2.10;;
17727;SDS011;8984;49.268;12.302;2023-02-04T08:41:58;2.23;;;2.03;;
17727;SDS011;8984;49.268;12.302;2023-02-04T08:44:31;2.27;;;2.07;;
17727;SDS011;8984;49.268;12.302;2023-02-04T08:47:13;2.13;;;1.83;;
17727;SDS011;8984;49.268;12.302;2023-02-04T08:49:42;2.40;;;2.20;;
17727;SDS011;8984;49.268;12.302;2023-02-04T08:52:20;3.03;;;2.17;;
17727;SDS011;8984;49.268;12.302;2023-02-04T08:55:16;2.90;;;2.53;;
17727;SDS011;8984;49.268;12.302;2023-02-04T08:57:43;2.47;;;2.27;;
17727;SDS011;8984;49.268;12.302;2023-02-04T09:00:11;2.57;;;2.30;;
17727;SDS011;8984;49.268;12.302;2023-02-04T09:02:38;3.23;;;2.53;;
17727;SDS011;8984;49.268;12.302;2023-02-04T09:05:05;2.30;;;2.10;;
17727;SDS011;8984;49.268;12.302;2023-02-04T09:07:33;2.00;;;1.90;;
17727;SDS011;8984;49.268;12.302;2023-02-04T09:10:00;2.10;;;1.90;;
17727;SDS011;8984;49.268;12.302;2023-02-04T09:12:37;3.30;;;2.07;;
17727;SDS011;8984;49.268;12.302;2023-02-04T09:15:22;2.30;;;2.10;;
17727;SDS011;8984;49.268;12.302;2023-02-04T09:17:53;2.60;;;2.40;;
17727;SDS011;8984;49.268;12.302;2023-02-04T09:20:41;2.10;;;2.00;;
17727;SDS011;8984;49.268;12.302;2023-02-04T09:23:10;2.57;;;2.23;;
17727;SDS011;8984;49.268;12.302;2023-02-04T09:29:06;2.07;;;1.90;;
17727;SDS011;8984;49.268;12.302;2023-02-04T09:31:33;2.30;;;2.10;;
17727;SDS011;8984;49.268;12.302;2023-02-04T09:34:00;2.70;;;1.80;;
17727;SDS011;8984;49.268;12.302;2023-02-04T09:36:27;2.93;;;1.87;;
17727;SDS011;8984;49.268;12.302;2023-02-04T09:38:56;1.80;;;1.70;;
17727;SDS011;8984;49.268;12.302;2023-02-04T09:41:23;3.47;;;1.90;;
17727;SDS011;8984;49.268;12.302;2023-02-04T09:43:50;2.50;;;2.27;;
17727;SDS011;8984;49.268;12.302;2023-02-04T09:46:19;2.40;;;2.07;;
17727;SDS011;8984;49.268;12.302;2023-02-04T09:48:49;6.20;;;3.40;;
17727;SDS011;8984;49.268;12.302;2023-02-04T09:51:17;2.83;;;2.00;;
17727;SDS011;8984;49.268;12.302;2023-02-04T09:53:47;2.43;;;2.20;;
17727;SDS011;8984;49.268;12.302;2023-02-04T09:56:17;1.90;;;1.80;;
17727;SDS011;8984;49.268;12.302;2023-02-04T09:58:44;2.93;;;2.37;;
17727;SDS011;8984;49.268;12.302;2023-02-04T10:01:13;1.90;;;1.80;;
17727;SDS011;8984;49.268;12.302;2023-02-04T10:03:43;2.47;;;2.27;;
17727;SDS011;8984;49.268;12.302;2023-02-04T10:06:12;2.10;;;2.00;;
17727;SDS011;8984;49.268;12.302;2023-02-04T10:08:41;2.40;;;2.20;;
17727;SDS011;8984;49.268;12.302;2023-02-04T10:11:08;3.30;;;2.33;;
17727;SDS011;8984;49.268;12.302;2023-02-04T10:13:36;2.27;;;2.07;;
17727;SDS011;8984;49.268;12.302;2023-02-04T10:16:11;2.47;;;2.10;;
17727;SDS011;8984;49.268;12.302;2023-02-04T10:18:40;3.20;;;1.80;;
17727;SDS011;8984;49.268;12.302;2023-02-04T10:21:14;2.90;;;2.60;;
17727;SDS011;8984;49.268;12.302;2023-02-04T10:23:44;3.07;;;2.23;;
17727;SDS011;8984;49.268;12.302;2023-02-04T10:26:13;5.57;;;4.13;;
17727;SDS011;8984;49.268;12.302;2023-02-04T10:28:41;2.20;;;2.00;;
17727;SDS011;8984;49.268;12.302;2023-02-04T10:31:26;3.83;;;3.03;;
17727;SDS011;8984;49.268;12.302;2023-02-04T10:34:02;2.30;;;2.10;;
17727;SDS011;8984;49.268;12.302;2023-02-04T10:36:36;2.47;;;2.27;;
17727;SDS011;8984;49.268;12.302;2023-02-04T10:39:03;2.40;;;2.20;;
17727;SDS011;8984;49.268;12.302;2023-02-04T10:41:31;3.13;;;2.10;;
17727;SDS011;8984;49.268;12.302;2023-02-04T10:44:03;2.43;;;2.03;;
17727;SDS011;8984;49.268;12.302;2023-02-04T10:46:31;1.97;;;1.87;;
17727;SDS011;8984;49.268;12.302;2023-02-04T10:48:58;3.00;;;2.70;;
17727;SDS011;8984;49.268;12.302;2023-02-04T10:51:25;6.07;;;3.63;;
17727;SDS011;8984;49.268;12.302;2023-02-04T10:53:53;3.30;;;2.43;;
17727;SDS011;8984;49.268;12.302;2023-02-04T10:56:37;2.90;;;2.30;;
17727;SDS011;8984;49.268;12.302;2023-02-04T10:59:04;3.47;;;2.03;;
17727;SDS011;8984;49.268;12.302;2023-02-04T11:01:36;2.50;;;2.30;;
17727;SDS011;8984;49.268;12.302;2023-02-04T11:04:04;4.20;;;2.27;;
17727;SDS011;8984;49.268;12.302;2023-02-04T11:06:35;2.77;;;2.10;;
17727;SDS011;8984;49.268;12.302;2023-02-04T11:09:03;2.23;;;2.03;;
17727;SDS011;8984;49.268;12.302;2023-02-04T11:11:30;2.33;;;2.13;;
17727;SDS011;8984;49.268;12.302;2023-02-04T11:13:58;2.37;;;2.13;;
17727;SDS011;8984;49.268;12.302;2023-02-04T11:16:27;2.17;;;1.97;;
17727;SDS011;8984;49.268;12.302;2023-02-04T11:19:02;2.80;;;1.90;;
17727;SDS011;8984;49.268;12.302;2023-02-04T11:21:43;2.20;;;1.83;;
17727;SDS011;8984;49.268;12.302;2023-02-04T11:24:31;2.40;;;2.10;;
17727;SDS011;8984;49.268;12.302;2023-02-04T11:27:07;2.20;;;2.00;;
17727;SDS011;8984;49.268;12.302;2023-02-04T11:29:44;1.90;;;1.80;;
17727;SDS011;8984;49.268;12.302;2023-02-04T11:32:25;1.80;;;1.70;;
17727;SDS011;8984;49.268;12.302;2023-02-04T11:35:19;1.60;;;1.50;;
17727;SDS011;8984;49.268;12.302;2023-02-04T11:44:02;2.00;;;1.90;;
17727;SDS011;8984;49.268;12.302;2023-02-04T11:46:47;1.60;;;1.50;;
17727;SDS011;8984;49.268;12.302;2023-02-04T11:49:35;1.60;;;1.50;;
17727;SDS011;8984;49.268;12.302;2023-02-04T11:55:15;2.40;;;2.20;;
17727;SDS011;8984;49.268;12.302;2023-02-04T12:14:08;5.57;;;2.80;;
17727;SDS011;8984;49.268;12.302;2023-02-04T12:16:57;3.50;;;2.67;;
17727;SDS011;8984;49.268;12.302;2023-02-04T12:19:42;2.03;;;1.90;;
17727;SDS011;8984;49.268;12.302;2023-02-04T12:22:26;2.00;;;1.80;;
17727;SDS011;8984;49.268;12.302;2023-02-04T12:25:15;3.63;;;2.53;;
17727;SDS011;8984;49.268;12.302;2023-02-04T12:37:21;2.07;;;1.97;;
17727;SDS011;8984;49.268;12.302;2023-02-04T12:39:52;1.90;;;1.70;;
17727;SDS011;8984;49.268;12.302;2023-02-04T12:42:34;2.70;;;2.40;;
17727;SDS011;8984;49.268;12.302;2023-02-04T12:45:17;1.87;;;1.77;;
17727;SDS011;8984;49.268;12.302;2023-02-04T12:48:00;2.80;;;2.13;;
17727;SDS011;8984;49.268;12.302;2023-02-04T12:50:32;2.40;;;1.77;;
17727;SDS011;8984;49.268;12.302;2023-02-04T12:53:12;2.87;;;2.10;;
17727;SDS011;8984;49.268;12.302;2023-02-04T12:55:40;2.67;;;1.80;;
17727;SDS011;8984;49.268;12.302;2023-02-04T12:58:21;2.93;;;1.97;;
17727;SDS011;8984;49.268;12.302;2023-02-04T13:00:56;1.60;;;1.50;;
17727;SDS011;8984;49.268;12.302;2023-02-04T13:03:32;2.10;;;1.97;;
17727;SDS011;8984;49.268;12.302;2023-02-04T13:06:10;1.60;;;1.50;;
17727;SDS011;8984;49.268;12.302;2023-02-04T13:11:48;3.60;;;2.43;;
17727;SDS011;8984;49.268;12.302;2023-02-04T13:14:23;2.83;;;2.43;;
17727;SDS011;8984;49.268;12.302;2023-02-04T13:17:18;2.13;;;1.87;;
17727;SDS011;8984;49.268;12.302;2023-02-04T13:19:45;2.13;;;1.70;;
17727;SDS011;8984;49.268;12.302;2023-02-04T13:22:12;2.03;;;1.60;;
17727;SDS011;8984;49.268;12.302;2023-02-04T13:24:39;1.50;;;1.30;;
17727;SDS011;8984;49.268;12.302;2023-02-04T13:27:06;3.10;;;1.60;;
17727;SDS011;8984;49.268;12.302;2023-02-04T13:29:32;2.70;;;2.00;;
17727;SDS011;8984;49.268;12.302;2023-02-04T13:31:59;1.93;;;1.73;;
17727;SDS011;8984;49.268;12.302;2023-02-04T13:34:28;1.83;;;1.70;;
17727;SDS011;8984;49.268;12.302;2023-02-04T13:36:55;22.77;;;14.03;;
17727;SDS011;8984;49.268;12.302;2023-02-04T13:39:22;32.27;;;15.80;;
17727;SDS011;8984;49.268;12.302;2023-02-04T13:41:49;14.00;;;6.87;;
17727;SDS011;8984;49.268;12.302;2023-02-04T13:44:15;10.47;;;6.53;;
17727;SDS011;8984;49.268;12.302;2023-02-04T13:46:42;4.80;;;3.70;;
17727;SDS011;8984;49.268;12.302;2023-02-04T13:49:09;2.33;;;2.13;;
17727;SDS011;8984;49.268;12.302;2023-02-04T13:51:37;1.77;;;1.67;;
17727;SDS011;8984;49.268;12.302;2023-02-04T13:54:04;2.10;;;2.00;;
17727;SDS011;8984;49.268;12.302;2023-02-04T13:56:31;2.30;;;2.10;;
17727;SDS011;8984;49.268;12.302;2023-02-04T13:58:58;3.47;;;2.10;;
17727;SDS011;8984;49.268;12.302;2023-02-04T14:01:25;2.93;;;1.77;;
17727;SDS011;8984;49.268;12.302;2023-02-04T14:03:52;2.00;;;1.80;;
17727;SDS011;8984;49.268;12.302;2023-02-04T14:06:19;2.07;;;1.87;;
17727;SDS011;8984;49.268;12.302;2023-02-04T14:08:48;3.20;;;2.00;;
17727;SDS011;8984;49.268;12.302;2023-02-04T14:11:14;1.90;;;1.70;;
17727;SDS011;8984;49.268;12.302;2023-02-04T14:13:41;4.03;;;1.80;;
17727;SDS011;8984;49.268;12.302;2023-02-04T14:16:08;2.20;;;2.00;;
17727;SDS011;8984;49.268;12.302;2023-02-04T14:18:35;2.03;;;1.90;;
17727;SDS011;8984;49.268;12.302;2023-02-04T14:21:02;2.10;;;1.90;;
17727;SDS011;8984;49.268;12.302;2023-02-04T14:23:29;1.80;;;1.70;;
17727;SDS011;8984;49.268;12.302;2023-02-04T14:25:57;2.07;;;1.90;;
17727;SDS011;8984;49.268;12.302;2023-02-04T14:28:24;2.00;;;1.90;;
17727;SDS011;8984;49.268;12.302;2023-02-04T14:30:51;2.07;;;1.90;;
17727;SDS011;8984;49.268;12.302;2023-02-04T14:33:18;3.03;;;1.97;;
17727;SDS011;8984;49.268;12.302;2023-02-04T14:35:45;5.10;;;2.47;;
17727;SDS011;8984;49.268;12.302;2023-02-04T14:38:12;4.10;;;3.00;;
17727;SDS011;8984;49.268;12.302;2023-02-04T14:40:40;2.87;;;2.53;;
17727;SDS011;8984;49.268;12.302;2023-02-04T14:43:08;4.20;;;2.30;;
17727;SDS011;8984;49.268;12.302;2023-02-04T14:45:36;3.27;;;2.37;;
17727;SDS011;8984;49.268;12.302;2023-02-04T14:48:03;3.17;;;2.70;;
17727;SDS011;8984;49.268;12.302;2023-02-04T14:50:30;3.33;;;2.77;;
17727;SDS011;8984;49.268;12.302;2023-02-04T14:52:56;4.03;;;1.97;;
17727;SDS011;8984;49.268;12.302;2023-02-04T14:55:23;2.90;;;2.60;;
17727;SDS011;8984;49.268;12.302;2023-02-04T14:57:51;12.40;;;6.33;;
17727;SDS011;8984;49.268;12.302;2023-02-04T15:00:20;13.13;;;7.37;;
17727;SDS011;8984;49.268;12.302;2023-02-04T15:02:47;6.00;;;4.07;;
17727;SDS011;8984;49.268;12.302;2023-02-04T15:05:14;3.33;;;2.60;;
17727;SDS011;8984;49.268;12.302;2023-02-04T15:07:41;3.43;;;2.90;;
17727;SDS011;8984;49.268;12.302;2023-02-04T15:10:08;4.77;;;3.17;;
17727;SDS011;8984;49.268;12.302;2023-02-04T15:12:36;3.07;;;2.70;;
17727;SDS011;8984;49.268;12.302;2023-02-04T15:15:03;3.13;;;2.47;;
17727;SDS011;8984;49.268;12.302;2023-02-04T15:17:32;3.37;;;2.97;;
17727;SDS011;8984;49.268;12.302;2023-02-04T15:19:58;4.00;;;2.70;;
17727;SDS011;8984;49.268;12.302;2023-02-04T15:22:27;3.77;;;2.80;;
17727;SDS011;8984;49.268;12.302;2023-02-04T15:24:55;5.83;;;3.63;;
17727;SDS011;8984;49.268;12.302;2023-02-04T15:27:22;6.07;;;3.33;;
17727;SDS011;8984;49.268;12.302;2023-02-04T15:29:49;4.20;;;2.97;;
17727;SDS011;8984;49.268;12.302;2023-02-04T15:32:16;4.90;;;2.63;;
17727;SDS011;8984;49.268;12.302;2023-02-04T15:34:45;2.40;;;2.20;;
17727;SDS011;8984;49.268;12.302;2023-02-04T15:37:12;2.13;;;2.03;;
17727;SDS011;8984;49.268;12.302;2023-02-04T15:39:39;2.20;;;2.00;;
17727;SDS011;8984;49.268;12.302;2023-02-04T15:42:07;6.40;;;2.10;;
17727;SDS011;8984;49.268;12.302;2023-02-04T15:44:34;2.70;;;2.17;;
17727;SDS011;8984;49.268;12.302;2023-02-04T15:47:01;2.63;;;2.30;;
17727;SDS011;8984;49.268;12.302;2023-02-04T15:49:28;4.33;;;2.63;;
17727;SDS011;8984;49.268;12.302;2023-02-04T15:51:57;4.70;;;2.50;;
17727;SDS011;8984;49.268;12.302;2023-02-04T15:54:26;2.90;;;2.60;;
17727;SDS011;8984;49.268;12.302;2023-02-04T15:56:53;2.50;;;2.30;;
17727;SDS011;8984;49.268;12.302;2023-02-04T15:59:20;3.63;;;2.50;;
17727;SDS011;8984;49.268;12.302;2023-02-04T16:01:47;3.20;;;2.27;;
17727;SDS011;8984;49.268;12.302;2023-02-04T16:04:17;4.87;;;2.80;;
17727;SDS011;8984;49.268;12.302;2023-02-04T16:10:10;3.63;;;3.33;;
17727;SDS011;8984;49.268;12.302;2023-02-04T16:12:44;3.37;;;2.90;;
17727;SDS011;8984;49.268;12.302;2023-02-04T16:15:25;6.30;;;4.77;;
17727;SDS011;8984;49.268;12.302;2023-02-04T16:18:09;6.10;;;4.23;;
17727;SDS011;8984;49.268;12.302;2023-02-04T16:20:41;5.23;;;3.80;;
17727;SDS011;8984;49.268;12.302;2023-02-04T16:23:11;3.57;;;3.00;;
17727;SDS011;8984;49.268;12.302;2023-02-04T16:28:33;4.13;;;2.90;;
17727;SDS011;8984;49.268;12.302;2023-02-04T16:31:07;3.07;;;2.40;;
17727;SDS011;8984;49.268;12.302;2023-02-04T16:33:39;2.90;;;2.60;;
17727;SDS011;8984;49.268;12.302;2023-02-04T16:36:08;2.90;;;2.63;;
17727;SDS011;8984;49.268;12.302;2023-02-04T16:38:38;2.70;;;2.40;;
17727;SDS011;8984;49.268;12.302;2023-02-04T16:41:10;2.90;;;2.60;;
17727;SDS011;8984;49.268;12.302;2023-02-04T16:43:42;3.03;;;2.60;;
17727;SDS011;8984;49.268;12.302;2023-02-04T16:46:15;2.50;;;2.30;;
17727;SDS011;8984;49.268;12.302;2023-02-04T16:48:43;2.40;;;2.20;;
17727;SDS011;8984;49.268;12.302;2023-02-04T16:51:12;3.50;;;2.40;;
17727;SDS011;8984;49.268;12.302;2023-02-04T16:53:44;4.17;;;3.40;;
17727;SDS011;8984;49.268;12.302;2023-02-04T16:56:20;4.63;;;4.17;;
17727;SDS011;8984;49.268;12.302;2023-02-04T16:58:59;4.17;;;3.63;;